createdAt,value
2019-03-22T00:00:01.884Z,12.45
2019-03-22T00:02:30.385Z,10.13
2019-03-22T00:04:58.867Z,14.45
2019-03-22T00:07:27.381Z,9.90
2019-03-22T00:09:55.987Z,12.30
2019-03-22T00:12:24.441Z,13.75
2019-03-22T00:14:52.932Z,11.70
2019-03-22T00:17:21.418Z,12.07
2019-03-22T00:19:49.856Z,10.65
2019-03-22T00:22:18.331Z,12.00
2019-03-22T00:24:46.786Z,11.70
2019-03-22T00:27:16.768Z,12.53
2019-03-22T00:29:45.418Z,12.13
2019-03-22T00:32:13.900Z,11.93
2019-03-22T00:34:42.386Z,11.68
2019-03-22T00:37:10.965Z,10.32
2019-03-22T00:39:39.440Z,10.30
2019-03-22T00:42:07.890Z,11.78
2019-03-22T00:44:36.374Z,9.23
2019-03-22T00:47:04.826Z,10.70
2019-03-22T00:49:33.274Z,12.85
2019-03-22T00:52:01.785Z,17.12
2019-03-22T00:54:30.219Z,9.85
2019-03-22T00:56:58.868Z,14.18
2019-03-22T00:59:27.362Z,8.70
2019-03-22T01:01:55.950Z,10.35
2019-03-22T01:04:24.398Z,10.13
2019-03-22T01:06:52.888Z,10.60
2019-03-22T01:09:21.343Z,14.45
2019-03-22T01:11:49.905Z,9.68
2019-03-22T01:14:18.390Z,10.72
2019-03-22T01:16:46.834Z,13.15
2019-03-22T01:19:15.282Z,13.88
2019-03-22T01:21:43.832Z,16.02
2019-03-22T01:24:12.311Z,13.50
2019-03-22T01:26:40.788Z,9.55
2019-03-22T01:29:09.279Z,10.93
2019-03-22T01:31:37.757Z,9.70
2019-03-22T01:34:06.192Z,11.05
2019-03-22T01:36:34.686Z,11.88
2019-03-22T01:39:03.648Z,9.73
2019-03-22T01:41:33.524Z,12.50
2019-03-22T01:44:02.013Z,15.45
2019-03-22T01:46:30.459Z,9.40
2019-03-22T01:48:58.911Z,8.53
2019-03-22T01:51:27.447Z,12.90
2019-03-22T01:53:55.863Z,11.68
2019-03-22T01:56:24.310Z,12.18
2019-03-22T01:58:52.795Z,9.10
2019-03-22T02:01:21.250Z,10.13
2019-03-22T02:03:49.694Z,9.20
2019-03-22T02:06:18.183Z,9.73
2019-03-22T02:08:46.622Z,12.82
2019-03-22T02:11:15.079Z,11.20
2019-03-22T02:13:43.569Z,12.53
2019-03-22T02:16:12.078Z,10.38
2019-03-22T02:18:40.582Z,10.43
2019-03-22T02:21:09.119Z,13.30
2019-03-22T02:23:37.600Z,13.13
2019-03-22T02:26:06.076Z,10.68
2019-03-22T02:28:34.667Z,12.58
2019-03-22T02:31:03.147Z,9.75
2019-03-22T02:33:31.577Z,10.40
2019-03-22T02:36:00.059Z,9.40
2019-03-22T02:38:28.500Z,9.68
2019-03-22T02:40:56.956Z,10.15
2019-03-22T02:43:25.596Z,12.00
2019-03-22T02:45:54.049Z,13.28
2019-03-22T02:48:22.618Z,12.18
2019-03-22T02:50:51.201Z,10.82
2019-03-22T02:53:19.805Z,11.53
2019-03-22T02:55:48.310Z,10.60
2019-03-22T02:58:24.097Z,12.95
2019-03-22T03:00:53.985Z,10.43
2019-03-22T03:03:29.974Z,9.73
2019-03-22T03:05:59.178Z,9.10
2019-03-22T03:08:27.672Z,9.20
2019-03-22T03:10:56.155Z,8.63
2019-03-22T03:13:24.606Z,14.85
2019-03-22T03:15:53.067Z,11.53
2019-03-22T03:18:21.503Z,10.40
2019-03-22T03:20:50.078Z,8.45
2019-03-22T03:23:18.642Z,9.40
2019-03-22T03:25:47.142Z,9.08
2019-03-22T03:28:15.675Z,9.18
2019-03-22T03:30:44.124Z,10.10
2019-03-22T03:33:12.643Z,8.63
2019-03-22T03:35:41.116Z,8.98
2019-03-22T03:38:09.560Z,9.35
2019-03-22T03:40:38.025Z,11.33
2019-03-22T03:43:06.512Z,9.78
2019-03-22T03:45:36.445Z,9.05
2019-03-22T03:48:06.449Z,8.95
2019-03-22T03:50:35.063Z,8.80
2019-03-22T03:53:03.606Z,9.98
2019-03-22T03:55:32.092Z,9.45
2019-03-22T03:58:00.579Z,11.48
2019-03-22T04:00:28.983Z,11.08
2019-03-22T04:02:57.535Z,18.17
2019-03-22T04:05:26.013Z,10.68
2019-03-22T04:07:54.513Z,10.45
2019-03-22T04:10:23.020Z,12.13
2019-03-22T04:12:51.577Z,12.40
2019-03-22T04:15:20.047Z,9.68
2019-03-22T04:17:48.534Z,9.43
2019-03-22T04:20:16.986Z,9.58
2019-03-22T04:22:45.495Z,14.53
2019-03-22T04:25:13.939Z,11.48
2019-03-22T04:27:42.392Z,12.00
2019-03-22T04:30:11.748Z,11.55
2019-03-22T04:32:40.280Z,11.00
2019-03-22T04:35:09.328Z,11.28
2019-03-22T04:37:37.776Z,11.08
2019-03-22T04:40:24.358Z,11.80
2019-03-22T04:42:52.801Z,11.20
2019-03-22T04:45:21.271Z,10.50
2019-03-22T04:47:51.288Z,9.18
2019-03-22T04:50:20.777Z,10.58
2019-03-22T04:52:50.298Z,10.98
2019-03-22T04:55:19.496Z,9.80
2019-03-22T04:57:48.773Z,8.93
2019-03-22T05:00:17.327Z,14.98
2019-03-22T05:02:46.881Z,9.63
2019-03-22T05:05:15.324Z,9.38
2019-03-22T05:07:45.386Z,10.60
2019-03-22T05:10:14.756Z,11.95
2019-03-22T05:12:44.399Z,13.68
2019-03-22T05:15:14.412Z,10.50
2019-03-22T05:17:43.813Z,17.57
2019-03-22T05:20:13.246Z,12.07
2019-03-22T05:22:42.619Z,8.98
2019-03-22T05:25:12.065Z,11.68
2019-03-22T05:27:42.039Z,11.40
2019-03-22T05:30:11.993Z,9.43
2019-03-22T05:32:40.444Z,16.52
2019-03-22T05:35:08.891Z,9.88
2019-03-22T05:37:37.344Z,8.95
2019-03-22T05:40:07.023Z,10.20
2019-03-22T05:42:35.469Z,9.78
2019-03-22T05:45:05.605Z,9.15
2019-03-22T05:47:34.106Z,11.88
2019-03-22T05:50:02.562Z,9.08
2019-03-22T05:52:31.250Z,13.25
2019-03-22T05:54:59.703Z,10.50
2019-03-22T05:57:28.150Z,11.85
2019-03-22T05:59:56.595Z,8.10
2019-03-22T06:02:25.088Z,9.45
2019-03-22T06:04:53.558Z,10.32
2019-03-22T06:07:22.141Z,10.40
2019-03-22T06:09:50.623Z,11.45
2019-03-22T06:12:19.022Z,12.00
2019-03-22T06:14:47.476Z,17.60
2019-03-22T06:17:15.959Z,9.83
2019-03-22T06:19:44.411Z,9.45
2019-03-22T06:22:13.083Z,11.55
2019-03-22T06:24:41.612Z,14.28
2019-03-22T06:27:10.093Z,11.45
2019-03-22T06:29:38.677Z,14.28
2019-03-22T06:32:07.226Z,11.25
2019-03-22T06:34:35.726Z,10.05
2019-03-22T06:37:04.178Z,11.48
2019-03-22T06:39:32.666Z,12.43
2019-03-22T06:42:03.033Z,12.05
2019-03-22T06:44:31.214Z,13.65
2019-03-22T06:46:59.710Z,17.02
2019-03-22T06:49:28.151Z,11.33
2019-03-22T06:51:56.641Z,9.98
2019-03-22T06:54:31.388Z,10.93
2019-03-22T06:56:55.226Z,11.97
2019-03-22T06:59:23.727Z,14.80
2019-03-22T07:01:52.618Z,10.80
2019-03-22T07:04:21.502Z,12.43
2019-03-22T07:06:50.399Z,9.10
2019-03-22T07:09:19.293Z,10.60
2019-03-22T07:11:48.182Z,8.88
2019-03-22T07:14:17.072Z,12.13
2019-03-22T07:16:45.963Z,11.12
2019-03-22T07:19:14.853Z,9.78
2019-03-22T07:21:43.745Z,9.53
2019-03-22T07:24:12.608Z,9.93
2019-03-22T07:26:41.629Z,8.20
2019-03-22T07:29:10.519Z,9.20
2019-03-22T07:31:39.428Z,15.38
2019-03-22T07:34:08.464Z,10.60
2019-03-22T07:36:37.499Z,10.30
2019-03-22T07:39:09.118Z,8.00
2019-03-22T07:41:38.046Z,9.97
2019-03-22T07:44:06.938Z,11.23
2019-03-22T07:46:35.816Z,11.00
2019-03-22T07:49:04.721Z,10.93
2019-03-22T07:51:33.150Z,10.07
2019-03-22T07:54:03.708Z,17.03
2019-03-22T07:56:31.735Z,20.53
2019-03-22T07:59:00.188Z,14.23
2019-03-22T08:01:29.069Z,15.10
2019-03-22T08:03:58.514Z,13.00
2019-03-22T08:06:27.363Z,15.67
2019-03-22T08:08:56.255Z,22.97
2019-03-22T08:11:25.253Z,15.60
2019-03-22T08:13:54.248Z,15.70
2019-03-22T08:16:23.139Z,17.90
2019-03-22T08:18:52.021Z,19.07
2019-03-22T08:21:20.911Z,21.10
2019-03-22T08:23:49.795Z,18.10
2019-03-22T08:26:18.809Z,18.47
2019-03-22T08:28:47.686Z,16.83
2019-03-22T08:31:16.580Z,20.73
2019-03-22T08:33:45.595Z,18.13
2019-03-22T08:36:15.051Z,17.07
2019-03-22T08:38:44.712Z,16.43
2019-03-22T08:41:13.676Z,15.07
2019-03-22T08:43:42.553Z,17.10
2019-03-22T08:46:11.458Z,17.33
2019-03-22T08:48:40.351Z,17.87
2019-03-22T08:51:09.360Z,16.63
2019-03-22T08:53:38.233Z,15.53
2019-03-22T08:56:07.225Z,15.13
2019-03-22T08:58:36.219Z,15.83
2019-03-22T09:01:05.110Z,15.10
2019-03-22T09:03:34.023Z,14.37
2019-03-22T09:06:02.998Z,17.03
2019-03-22T09:08:31.893Z,16.27
2019-03-22T09:11:00.776Z,15.43
2019-03-22T09:13:29.768Z,15.30
2019-03-22T09:15:58.673Z,17.23
2019-03-22T09:18:27.652Z,16.23
2019-03-22T09:20:56.651Z,15.17
2019-03-22T09:23:25.524Z,20.87
2019-03-22T09:25:54.462Z,18.17
2019-03-22T09:28:23.421Z,15.80
2019-03-22T09:30:52.311Z,14.80
2019-03-22T09:33:21.214Z,19.97
2019-03-22T09:35:50.195Z,21.20
2019-03-22T09:38:19.187Z,16.20
2019-03-22T09:40:48.101Z,16.20
2019-03-22T09:43:16.970Z,16.00
2019-03-22T09:45:45.971Z,15.43
2019-03-22T09:48:14.988Z,15.03
2019-03-22T09:50:44.551Z,15.60
2019-03-22T09:53:13.454Z,16.90
2019-03-22T09:55:42.376Z,19.73
2019-03-22T09:58:11.354Z,19.13
2019-03-22T10:00:40.275Z,15.13
2019-03-22T10:03:09.232Z,13.87
2019-03-22T10:05:38.124Z,13.90
2019-03-22T10:08:07.003Z,13.40
2019-03-22T10:10:35.888Z,14.47
2019-03-22T10:13:05.367Z,12.93
2019-03-22T10:15:34.376Z,14.83
2019-03-22T10:18:03.388Z,13.07
2019-03-22T10:20:32.380Z,13.03
2019-03-22T10:23:01.275Z,12.13
2019-03-22T10:25:30.175Z,12.70
2019-03-22T10:27:59.163Z,14.07
2019-03-22T10:30:28.081Z,15.77
2019-03-22T10:32:57.168Z,10.40
2019-03-22T10:35:26.711Z,20.77
2019-03-22T10:38:00.971Z,12.87
2019-03-22T10:40:26.987Z,12.90
2019-03-22T10:42:55.974Z,18.60
2019-03-22T10:45:24.876Z,17.10
2019-03-22T10:47:53.826Z,18.73
2019-03-22T10:50:22.891Z,39.67
2019-03-22T10:52:52.393Z,24.30
2019-03-22T10:55:29.741Z,19.70
2019-03-22T10:57:51.782Z,19.80
2019-03-22T11:00:21.283Z,17.03
2019-03-22T11:02:50.283Z,18.27
2019-03-22T11:05:19.175Z,18.83
2019-03-22T11:07:48.063Z,17.73
2019-03-22T11:10:17.055Z,17.47
2019-03-22T11:12:46.051Z,19.30
2019-03-22T11:15:16.396Z,18.43
2019-03-22T11:17:45.264Z,15.50
2019-03-22T11:20:17.445Z,15.83
2019-03-22T11:22:46.321Z,15.50
2019-03-22T11:25:15.931Z,16.60
2019-03-22T11:27:44.824Z,17.53
2019-03-22T11:30:16.988Z,18.17
2019-03-22T11:32:45.878Z,12.97
2019-03-22T11:35:17.050Z,13.30
2019-03-22T11:37:46.016Z,12.60
2019-03-22T11:40:17.359Z,11.73
2019-03-22T11:42:46.971Z,12.77
2019-03-22T11:45:18.736Z,13.57
2019-03-22T11:47:48.336Z,12.37
2019-03-22T11:50:18.963Z,13.20
2019-03-22T11:52:47.962Z,10.70
2019-03-22T11:55:17.671Z,13.33
2019-03-22T11:57:47.989Z,13.03
2019-03-22T12:00:20.061Z,10.40
2019-03-22T12:02:48.952Z,10.37
2019-03-22T12:05:19.552Z,10.83
2019-03-22T12:07:48.481Z,13.23
2019-03-22T12:10:21.655Z,9.80
2019-03-22T12:12:50.556Z,9.07
2019-03-22T12:15:23.852Z,7.20
2019-03-22T12:17:53.458Z,7.47
2019-03-22T12:20:23.495Z,8.00
2019-03-22T12:22:53.443Z,10.30
2019-03-22T12:25:25.088Z,11.57
2019-03-22T12:27:54.038Z,13.00
2019-03-22T12:30:22.885Z,14.50
2019-03-22T12:32:51.821Z,11.20
2019-03-22T12:35:20.814Z,16.57
2019-03-22T12:37:49.809Z,14.07
2019-03-22T12:40:23.696Z,9.67
2019-03-22T12:42:52.606Z,13.30
2019-03-22T12:45:26.810Z,12.93
2019-03-22T12:47:56.122Z,13.47
2019-03-22T12:50:26.841Z,19.50
2019-03-22T12:52:55.747Z,12.50
2019-03-22T12:55:25.378Z,15.17
2019-03-22T12:57:54.332Z,16.50
2019-03-22T13:00:26.208Z,12.60
2019-03-22T13:02:56.020Z,15.30
2019-03-22T13:05:25.016Z,17.23
2019-03-22T13:07:54.698Z,14.90
2019-03-22T13:10:28.755Z,14.07
2019-03-22T13:12:57.625Z,13.73
2019-03-22T13:15:26.516Z,17.33
2019-03-22T13:17:55.452Z,17.07
2019-03-22T13:20:24.402Z,13.57
2019-03-22T13:22:53.396Z,12.80
2019-03-22T13:25:22.232Z,15.67
2019-03-22T13:27:51.176Z,16.10
2019-03-22T13:30:38.559Z,16.90
2019-03-22T13:33:07.594Z,19.97
2019-03-22T13:35:36.485Z,12.50
2019-03-22T13:38:06.296Z,19.60
2019-03-22T13:40:35.097Z,16.93
2019-03-22T13:43:05.444Z,15.13
2019-03-22T13:45:34.322Z,21.30
2019-03-22T13:48:03.212Z,16.93
2019-03-22T13:50:32.064Z,18.80
2019-03-22T13:53:00.908Z,16.57
2019-03-22T13:55:29.888Z,20.47
2019-03-22T13:57:58.738Z,18.73
2019-03-22T14:00:27.688Z,18.23
2019-03-22T14:03:02.905Z,21.53
2019-03-22T14:05:27.072Z,16.30
2019-03-22T14:07:55.957Z,16.30
2019-03-22T14:10:32.625Z,12.63
2019-03-22T14:13:02.566Z,13.60
2019-03-22T14:15:31.406Z,14.00
2019-03-22T14:18:00.591Z,16.20
2019-03-22T14:20:29.944Z,13.30
2019-03-22T14:22:58.794Z,17.70
2019-03-22T14:25:27.668Z,18.57
2019-03-22T14:27:56.518Z,17.77
2019-03-22T14:30:25.495Z,16.87
2019-03-22T14:32:55.349Z,15.87
2019-03-22T14:35:24.194Z,18.20
2019-03-22T14:37:53.073Z,16.33
2019-03-22T14:40:22.067Z,15.37
2019-03-22T14:42:50.928Z,15.87
2019-03-22T14:45:19.785Z,16.30
2019-03-22T14:47:48.645Z,16.50
2019-03-22T14:50:17.539Z,17.30
2019-03-22T14:52:46.434Z,15.67
2019-03-22T14:55:16.534Z,18.57
2019-03-22T14:57:49.313Z,21.60
2019-03-22T15:00:17.064Z,20.57
2019-03-22T15:02:45.991Z,20.40
2019-03-22T15:05:14.882Z,17.80
2019-03-22T15:07:43.875Z,21.23
2019-03-22T15:10:15.735Z,17.33
2019-03-22T15:12:44.626Z,15.53
2019-03-22T15:15:16.486Z,16.67
2019-03-22T15:17:56.129Z,19.43
2019-03-22T15:20:26.664Z,15.73
2019-03-22T15:22:57.803Z,14.70
2019-03-22T15:25:44.719Z,15.43
2019-03-22T15:28:23.993Z,21.03
2019-03-22T15:31:10.749Z,16.00
2019-03-22T15:33:44.213Z,15.93
2019-03-22T15:36:32.899Z,19.33
2019-03-22T15:39:19.184Z,18.17
2019-03-22T15:41:48.261Z,14.43
2019-03-22T15:44:17.149Z,26.97
2019-03-22T15:46:46.054Z,13.73
2019-03-22T15:49:14.933Z,16.37
2019-03-22T15:51:43.776Z,13.40
2019-03-22T15:54:12.625Z,16.53
2019-03-22T15:56:41.504Z,10.73
2019-03-22T15:59:10.352Z,15.23
2019-03-22T16:01:39.199Z,10.23
2019-03-22T16:04:08.175Z,13.90
2019-03-22T16:06:37.012Z,9.50
2019-03-22T16:09:08.152Z,12.87
2019-03-22T16:11:37.139Z,8.50
2019-03-22T16:14:06.037Z,12.27
2019-03-22T16:16:34.929Z,11.20
2019-03-22T16:19:04.024Z,8.27
2019-03-22T16:21:32.916Z,12.47
2019-03-22T16:24:01.908Z,14.97
2019-03-22T16:26:31.825Z,10.93
2019-03-22T16:29:01.124Z,13.30
2019-03-22T16:31:29.984Z,11.03
2019-03-22T16:33:58.922Z,8.67
2019-03-22T16:36:27.808Z,12.20
2019-03-22T16:38:56.754Z,12.60
2019-03-22T16:41:25.612Z,10.23
2019-03-22T16:43:54.483Z,12.43
2019-03-22T16:46:22.939Z,11.20
2019-03-22T16:48:52.286Z,13.90
2019-03-22T16:51:21.243Z,11.60
2019-03-22T16:53:50.313Z,11.50
2019-03-22T16:56:19.353Z,11.17
2019-03-22T16:58:48.352Z,13.23
2019-03-22T17:01:17.192Z,9.53
2019-03-22T17:03:46.140Z,11.67
2019-03-22T17:06:15.024Z,14.03
2019-03-22T17:08:43.876Z,14.33
2019-03-22T17:11:13.320Z,11.97
2019-03-22T17:13:42.311Z,13.87
2019-03-22T17:16:11.066Z,12.43
2019-03-22T17:18:39.551Z,17.03
2019-03-22T17:21:08.032Z,13.87
2019-03-22T17:23:36.756Z,14.60
2019-03-22T17:26:05.242Z,11.57
2019-03-22T17:28:34.110Z,12.37
2019-03-22T17:31:02.943Z,9.93
2019-03-22T17:33:31.435Z,14.57
2019-03-22T17:35:59.880Z,15.87
2019-03-22T17:38:28.939Z,15.80
2019-03-22T17:40:57.464Z,12.67
2019-03-22T17:43:25.914Z,11.73
2019-03-22T17:45:54.359Z,14.53
2019-03-22T17:48:22.861Z,10.97
2019-03-22T17:50:51.300Z,12.90
2019-03-22T17:53:19.746Z,11.23
2019-03-22T17:55:48.249Z,13.10
2019-03-22T17:58:16.687Z,15.33
2019-03-22T18:00:46.446Z,15.30
2019-03-22T18:03:15.328Z,13.67
2019-03-22T18:05:44.163Z,12.70
2019-03-22T18:08:13.067Z,16.60
2019-03-22T18:10:41.958Z,12.33
2019-03-22T18:13:10.850Z,13.90
2019-03-22T18:15:39.740Z,14.30
2019-03-22T18:18:08.633Z,10.73
2019-03-22T18:20:37.521Z,11.60
2019-03-22T18:23:06.412Z,10.80
2019-03-22T18:25:34.907Z,11.57
2019-03-22T18:28:03.369Z,14.20
2019-03-22T18:30:32.367Z,13.17
2019-03-22T18:33:01.363Z,12.90
2019-03-22T18:35:30.254Z,11.40
2019-03-22T18:37:59.142Z,13.40
2019-03-22T18:40:28.139Z,13.13
2019-03-22T18:42:57.131Z,14.07
2019-03-22T18:45:26.001Z,10.97
2019-03-22T18:47:54.885Z,10.60
2019-03-22T18:50:23.735Z,13.70
2019-03-22T18:52:52.687Z,13.90
2019-03-22T18:55:21.994Z,15.20
2019-03-22T18:57:50.938Z,15.77
2019-03-22T19:00:19.768Z,10.50
2019-03-22T19:02:48.662Z,9.43
2019-03-22T19:05:17.513Z,11.30
2019-03-22T19:07:46.356Z,11.20
2019-03-22T19:10:15.852Z,13.03
2019-03-22T19:12:44.683Z,11.70
2019-03-22T19:15:14.571Z,11.50
2019-03-22T19:17:43.412Z,12.47
2019-03-22T19:20:13.868Z,12.37
2019-03-22T19:22:42.760Z,15.00
2019-03-22T19:25:14.598Z,11.97
2019-03-22T19:27:43.570Z,14.17
2019-03-22T19:30:16.277Z,12.27
2019-03-22T19:32:45.126Z,12.63
2019-03-22T19:35:14.182Z,12.13
2019-03-22T19:37:43.065Z,11.33
2019-03-22T19:40:14.872Z,11.20
2019-03-22T19:42:43.815Z,12.23
2019-03-22T19:45:14.234Z,11.83
2019-03-22T19:47:44.572Z,13.50
2019-03-22T19:50:15.689Z,11.60
2019-03-22T19:52:44.589Z,12.60
2019-03-22T19:55:14.312Z,10.53
2019-03-22T19:57:43.165Z,11.27
2019-03-22T20:00:21.678Z,13.90
2019-03-22T20:02:50.512Z,13.87
2019-03-22T20:05:30.057Z,15.70
2019-03-22T20:07:58.942Z,12.27
2019-03-22T20:10:27.833Z,13.70
2019-03-22T20:12:56.416Z,13.43
2019-03-22T20:15:24.913Z,13.40
2019-03-22T20:17:53.369Z,13.37
2019-03-22T20:20:21.961Z,15.37
2019-03-22T20:22:50.426Z,16.03
2019-03-22T20:25:18.875Z,13.90
2019-03-22T20:27:47.405Z,11.40
2019-03-22T20:30:17.016Z,13.70
2019-03-22T20:32:46.062Z,10.23
2019-03-22T20:35:16.803Z,12.30
2019-03-22T20:37:44.708Z,12.57
2019-03-22T20:40:14.577Z,12.03
2019-03-22T20:42:43.064Z,13.73
2019-03-22T20:45:11.640Z,14.37
2019-03-22T20:47:40.089Z,12.87
2019-03-22T20:50:09.178Z,11.83
2019-03-22T20:52:37.748Z,11.97
2019-03-22T20:55:07.416Z,14.97
2019-03-22T20:57:35.937Z,12.37
2019-03-22T21:00:08.566Z,11.13
2019-03-22T21:02:37.019Z,11.67
2019-03-22T21:05:06.175Z,20.37
2019-03-22T21:07:34.744Z,12.27
2019-03-22T21:10:04.820Z,11.23
2019-03-22T21:12:33.271Z,12.10
2019-03-22T21:15:01.767Z,13.80
2019-03-22T21:17:30.239Z,13.93
2019-03-22T21:19:58.682Z,16.03
2019-03-22T21:22:27.171Z,13.80
2019-03-22T21:24:55.621Z,14.53
2019-03-22T21:27:24.080Z,14.23
2019-03-22T21:29:53.055Z,12.97
2019-03-22T21:32:21.946Z,12.50
2019-03-22T21:34:50.836Z,12.60
2019-03-22T21:37:19.830Z,15.10
2019-03-22T21:39:48.925Z,14.73
2019-03-22T21:42:17.760Z,15.50
2019-03-22T21:44:46.646Z,16.07
2019-03-22T21:47:15.677Z,13.50
2019-03-22T21:49:44.511Z,15.93
2019-03-22T21:52:13.395Z,14.37
2019-03-22T21:54:42.252Z,13.57
2019-03-22T21:57:11.143Z,13.77
2019-03-22T21:59:39.985Z,13.87
2019-03-22T22:02:08.829Z,14.40
2019-03-22T22:04:37.716Z,12.80
2019-03-22T22:07:06.557Z,21.30
2019-03-22T22:09:35.410Z,13.60
2019-03-22T22:12:04.386Z,15.67
2019-03-22T22:14:40.730Z,15.43
2019-03-22T22:17:03.715Z,14.23
2019-03-22T22:19:32.599Z,15.13
2019-03-22T22:22:01.443Z,16.90
2019-03-22T22:24:30.392Z,13.13
2019-03-22T22:26:59.402Z,15.60
2019-03-22T22:29:28.277Z,15.23
2019-03-22T22:31:57.127Z,20.10
2019-03-22T22:34:26.058Z,14.33
2019-03-22T22:36:54.949Z,14.17
2019-03-22T22:39:23.942Z,14.60
2019-03-22T22:41:52.836Z,17.03
2019-03-22T22:44:21.680Z,19.47
2019-03-22T22:46:50.533Z,15.70
2019-03-22T22:49:19.424Z,18.73
2019-03-22T22:51:47.985Z,15.03
2019-03-22T22:54:16.433Z,15.80
2019-03-22T22:56:44.935Z,15.23
2019-03-22T22:59:13.430Z,12.70
2019-03-22T23:01:41.913Z,15.67
2019-03-22T23:04:10.362Z,15.00
2019-03-22T23:06:38.873Z,15.00
2019-03-22T23:09:07.511Z,18.33
2019-03-22T23:11:36.059Z,14.87
2019-03-22T23:14:04.671Z,15.23
2019-03-22T23:16:33.413Z,17.77
2019-03-22T23:19:02.018Z,16.97
2019-03-22T23:21:49.787Z,14.63
2019-03-22T23:24:18.429Z,15.73
2019-03-22T23:26:46.998Z,17.40
2019-03-22T23:29:15.445Z,17.40
2019-03-22T23:31:44.164Z,15.73
2019-03-22T23:34:12.749Z,17.93
2019-03-22T23:36:41.174Z,19.57
2019-03-22T23:39:09.657Z,16.17
2019-03-22T23:41:38.614Z,15.20
2019-03-22T23:44:07.291Z,15.88
2019-03-22T23:46:36.381Z,15.40
2019-03-22T23:49:05.891Z,16.02
2019-03-22T23:51:34.393Z,16.17
2019-03-22T23:54:02.960Z,19.17
2019-03-22T23:56:31.943Z,29.42
2019-03-22T23:59:01.167Z,27.80
